Time;durP1;ratioP1;P1;durP2;ratioP2;P2;SDS_P1;SDS_P2;PMS_P1;PMS_P2;Temp;Humidity;BMP_temperature;BMP_pressure;BME280_temperature;BME280_humidity;BME280_pressure;Samples;Min_cycle;Max_cycle;Signal;HPM_P1;HPM_P2
2022/04/28 00:01:58;;;;;;;15.13;7.93;;;;;;;;;;5072587;28;20037;-27
2022/04/28 00:04:25;;;;;;;13.55;7.50;;;;;;;;;;5073417;28;20039;-29
2022/04/28 00:06:51;;;;;;;12.60;7.63;;;;;;;;;;5072557;28;20052;-29
2022/04/28 00:09:17;;;;;;;11.40;7.65;;;;;;;;;;5073608;28;20047;-28
2022/04/28 00:11:43;;;;;;;12.57;7.68;;;;;;;;;;5073630;28;20037;-27
2022/04/28 00:14:09;;;;;;;12.75;7.35;;;;;;;;;;5073978;28;20071;-27
2022/04/28 00:16:36;;;;;;;12.68;7.82;;;;;;;;;;5073631;28;20089;-28
2022/04/28 00:19:02;;;;;;;12.43;7.53;;;;;;;;;;5073137;28;20097;-28
2022/04/28 00:21:29;;;;;;;14.60;7.85;;;;;;;;;;5073901;28;20070;-30
2022/04/28 00:23:55;;;;;;;14.43;7.70;;;;;;;;;;5072184;28;20048;-28
2022/04/28 00:26:21;;;;;;;12.20;7.82;;;;;;;;;;5052921;28;20530;-29
2022/04/28 00:28:48;;;;;;;13.73;8.77;;;;;;;;;;5071732;28;20094;-28
2022/04/28 00:31:14;;;;;;;11.70;8.38;;;;;;;;;;5073812;28;20481;-30
2022/04/28 00:33:41;;;;;;;17.10;7.93;;;;;;;;;;5068692;28;20490;-30
2022/04/28 00:36:07;;;;;;;14.63;7.97;;;;;;;;;;5054764;28;20073;-29
2022/04/28 00:38:33;;;;;;;13.85;8.50;;;;;;;;;;5056656;28;20048;-27
2022/04/28 00:40:59;;;;;;;11.93;8.55;;;;;;;;;;5053082;28;20040;-27
2022/04/28 00:43:28;;;;;;;11.75;7.47;;;;;;;;;;5062784;28;20123;-28
2022/04/28 00:45:54;;;;;;;15.25;8.32;;;;;;;;;;5072670;28;20041;-29
2022/04/28 00:51:06;;;;;;;13.10;8.60;;;;;;;;;;5073148;28;20047;-27
2022/04/28 00:53:37;;;;;;;14.15;8.25;;;;;;;;;;5073430;28;20489;-29
2022/04/28 00:56:03;;;;;;;13.50;7.88;;;;;;;;;;5073254;28;20165;-28
2022/04/28 00:58:29;;;;;;;12.10;8.38;;;;;;;;;;5072811;28;20123;-29
2022/04/28 01:00:56;;;;;;;16.77;8.98;;;;;;;;;;5072399;28;20418;-28
2022/04/28 01:03:23;;;;;;;13.80;8.20;;;;;;;;;;5071062;28;20050;-28
2022/04/28 01:05:49;;;;;;;15.52;8.32;;;;;;;;;;5073333;28;20040;-28
2022/04/28 01:08:15;;;;;;;15.40;9.05;;;;;;;;;;5072422;28;20119;-30
2022/04/28 01:10:41;;;;;;;15.73;8.50;;;;;;;;;;5072980;28;20107;-28
2022/04/28 01:13:08;;;;;;;13.82;8.05;;;;;;;;;;5070053;28;20036;-28
2022/04/28 01:15:43;;;;;;;16.42;8.88;;;;;;;;;;5052540;28;20045;-27
2022/04/28 01:18:09;;;;;;;13.52;8.85;;;;;;;;;;5055626;28;20033;-29
2022/04/28 01:20:35;;;;;;;13.10;8.13;;;;;;;;;;5070075;28;20040;-28
2022/04/28 01:23:04;;;;;;;12.70;8.32;;;;;;;;;;5054167;28;20052;-27
2022/04/28 01:25:30;;;;;;;16.05;8.73;;;;;;;;;;5053069;28;20068;-29
2022/04/28 01:27:57;;;;;;;16.45;8.77;;;;;;;;;;5053006;28;20383;-29
2022/04/28 01:30:23;;;;;;;14.95;7.93;;;;;;;;;;5072602;28;20119;-30
2022/04/28 01:32:49;;;;;;;13.50;8.50;;;;;;;;;;5071523;28;20113;-27
2022/04/28 01:35:15;;;;;;;13.63;8.65;;;;;;;;;;5071298;28;20456;-29
2022/04/28 01:37:41;;;;;;;17.33;8.60;;;;;;;;;;5073211;28;20144;-27
2022/04/28 01:40:11;;;;;;;13.63;9.40;;;;;;;;;;5072622;28;20094;-29
2022/04/28 01:42:41;;;;;;;12.75;8.57;;;;;;;;;;5071787;28;20048;-28
2022/04/28 01:45:08;;;;;;;14.40;8.73;;;;;;;;;;5055869;28;20110;-30
2022/04/28 01:47:35;;;;;;;13.30;8.52;;;;;;;;;;5054102;28;20059;-30
2022/04/28 01:50:01;;;;;;;18.92;9.38;;;;;;;;;;5072568;28;20051;-31
2022/04/28 01:55:12;;;;;;;13.02;8.88;;;;;;;;;;5054681;28;20453;-27
2022/04/28 01:57:39;;;;;;;18.00;9.05;;;;;;;;;;5037102;28;20064;-29
2022/04/28 02:00:06;;;;;;;13.43;9.13;;;;;;;;;;5072496;28;20500;-29
2022/04/28 02:02:33;;;;;;;15.75;8.70;;;;;;;;;;5070533;28;20040;-28
2022/04/28 02:04:59;;;;;;;12.48;8.18;;;;;;;;;;5072183;28;20036;-28
2022/04/28 02:07:26;;;;;;;12.40;9.30;;;;;;;;;;5072201;28;20040;-28
2022/04/28 02:09:52;;;;;;;15.70;9.15;;;;;;;;;;5072059;28;20532;-27
2022/04/28 02:12:18;;;;;;;16.05;9.90;;;;;;;;;;5054108;28;20569;-29
2022/04/28 02:14:45;;;;;;;14.00;8.38;;;;;;;;;;5072002;28;20060;-27
2022/04/28 02:17:11;;;;;;;15.07;8.95;;;;;;;;;;5053318;28;20044;-30
2022/04/28 02:19:37;;;;;;;14.38;8.38;;;;;;;;;;5071787;28;20042;-28
2022/04/28 02:22:04;;;;;;;11.82;8.43;;;;;;;;;;5071172;28;20036;-28
2022/04/28 02:24:30;;;;;;;13.73;10.07;;;;;;;;;;5072120;28;20094;-28
2022/04/28 02:26:57;;;;;;;13.73;9.13;;;;;;;;;;5052867;28;20433;-30
2022/04/28 02:29:27;;;;;;;13.95;9.25;;;;;;;;;;5036848;28;20040;-30
2022/04/28 02:32:02;;;;;;;16.13;9.00;;;;;;;;;;5054525;28;20040;-26
2022/04/28 02:34:32;;;;;;;13.85;9.45;;;;;;;;;;5054733;28;20036;-29
2022/04/28 02:36:58;;;;;;;11.40;9.20;;;;;;;;;;5071424;28;20040;-25
2022/04/28 02:39:26;;;;;;;12.45;9.18;;;;;;;;;;5071547;28;20700;-25
2022/04/28 02:41:53;;;;;;;13.40;8.07;;;;;;;;;;5071150;28;20102;-26
2022/04/28 02:44:19;;;;;;;16.50;8.18;;;;;;;;;;5071179;28;20051;-26
2022/04/28 02:46:48;;;;;;;12.98;8.40;;;;;;;;;;5071344;28;20047;-26
2022/04/28 02:49:14;;;;;;;16.17;8.85;;;;;;;;;;5071362;28;20044;-27
2022/04/28 02:51:41;;;;;;;15.70;8.25;;;;;;;;;;5053082;28;20239;-28
2022/04/28 02:54:07;;;;;;;14.15;8.85;;;;;;;;;;5071319;28;20033;-26
2022/04/28 02:56:33;;;;;;;13.80;9.18;;;;;;;;;;5071134;28;20478;-25
2022/04/28 02:58:59;;;;;;;13.65;8.73;;;;;;;;;;5071210;28;20393;-25
2022/04/28 03:01:26;;;;;;;14.15;9.10;;;;;;;;;;5071184;28;20558;-25
2022/04/28 03:03:52;;;;;;;13.25;8.20;;;;;;;;;;5071300;28;20094;-26
2022/04/28 03:11:48;;;;;;;12.15;8.05;;;;;;;;;;5070744;28;20094;-26
2022/04/28 03:14:14;;;;;;;15.45;8.95;;;;;;;;;;5071089;28;20044;-25
2022/04/28 03:16:40;;;;;;;11.07;7.75;;;;;;;;;;5074135;28;20119;-25
2022/04/28 03:19:06;;;;;;;12.70;9.07;;;;;;;;;;5056736;28;20095;-26
2022/04/28 03:21:33;;;;;;;14.77;8.75;;;;;;;;;;5074868;28;20383;-26
2022/04/28 03:23:59;;;;;;;13.43;8.43;;;;;;;;;;5076125;28;20422;-26
2022/04/28 03:26:25;;;;;;;14.35;9.38;;;;;;;;;;5075285;28;20406;-25
2022/04/28 03:28:51;;;;;;;14.88;9.13;;;;;;;;;;5075082;28;20451;-26
2022/04/28 03:31:18;;;;;;;14.52;8.60;;;;;;;;;;5075394;28;20047;-25
2022/04/28 03:33:44;;;;;;;15.30;9.35;;;;;;;;;;5075052;28;20072;-27
2022/04/28 03:38:54;;;;;;;14.70;9.05;;;;;;;;;;5073953;28;20047;-25
2022/04/28 03:41:20;;;;;;;14.15;9.18;;;;;;;;;;5074306;28;20460;-26
2022/04/28 03:43:46;;;;;;;14.45;9.10;;;;;;;;;;5055836;28;20052;-26
2022/04/28 03:46:15;;;;;;;15.43;9.30;;;;;;;;;;5054111;28;20127;-25
2022/04/28 03:48:41;;;;;;;16.08;8.73;;;;;;;;;;5054068;28;20055;-27
2022/04/28 03:51:07;;;;;;;18.70;10.68;;;;;;;;;;5054381;28;20505;-26
2022/04/28 03:53:33;;;;;;;12.60;8.70;;;;;;;;;;5054218;28;20079;-25
2022/04/28 03:55:59;;;;;;;12.63;8.70;;;;;;;;;;5053669;28;20037;-24
2022/04/28 03:58:26;;;;;;;14.48;8.50;;;;;;;;;;5064645;28;20501;-26
2022/04/28 04:00:53;;;;;;;13.02;9.60;;;;;;;;;;5074033;28;20551;-25
2022/04/28 04:03:20;;;;;;;15.43;9.55;;;;;;;;;;5074132;28;20070;-25
2022/04/28 04:05:46;;;;;;;18.73;10.45;;;;;;;;;;5074043;28;20048;-26
2022/04/28 04:08:13;;;;;;;13.35;8.95;;;;;;;;;;5073694;28;20504;-26
2022/04/28 04:10:39;;;;;;;17.50;8.77;;;;;;;;;;5055611;28;20073;-25
2022/04/28 04:13:05;;;;;;;14.90;8.65;;;;;;;;;;5073535;28;20036;-25
2022/04/28 04:15:32;;;;;;;16.55;9.30;;;;;;;;;;5067183;28;20037;-24
2022/04/28 04:17:58;;;;;;;14.38;9.68;;;;;;;;;;5067364;28;20044;-25
2022/04/28 04:20:25;;;;;;;17.40;10.32;;;;;;;;;;5073747;28;20094;-27
2022/04/28 04:22:52;;;;;;;16.85;10.18;;;;;;;;;;5073563;28;20528;-27
2022/04/28 04:25:19;;;;;;;15.20;10.45;;;;;;;;;;5073585;28;20048;-25
2022/04/28 04:27:45;;;;;;;18.73;10.75;;;;;;;;;;5072128;28;20051;-26
2022/04/28 04:33:07;;;;;;;17.38;9.90;;;;;;;;;;5001161;28;20074;-26
2022/04/28 04:35:33;;;;;;;17.30;10.50;;;;;;;;;;5073694;28;20032;-26
2022/04/28 04:37:59;;;;;;;15.15;9.77;;;;;;;;;;5073225;28;20048;-25
2022/04/28 04:40:25;;;;;;;16.17;10.10;;;;;;;;;;5073143;28;20161;-26
2022/04/28 04:42:51;;;;;;;14.07;9.65;;;;;;;;;;5054796;28;20079;-25
2022/04/28 04:45:17;;;;;;;15.55;9.57;;;;;;;;;;5053419;28;20067;-27
2022/04/28 04:47:43;;;;;;;18.38;10.13;;;;;;;;;;5053104;28;20036;-26
2022/04/28 04:50:09;;;;;;;16.73;10.10;;;;;;;;;;5053029;28;20044;-26
2022/04/28 04:52:36;;;;;;;18.05;10.38;;;;;;;;;;5053067;28;20118;-26
2022/04/28 04:55:02;;;;;;;15.40;10.40;;;;;;;;;;5052666;28;20057;-27
2022/04/28 04:57:29;;;;;;;14.30;9.40;;;;;;;;;;5052814;28;20061;-25
2022/04/28 04:59:55;;;;;;;18.83;10.32;;;;;;;;;;5052757;28;20061;-25
2022/04/28 05:02:23;;;;;;;15.05;10.18;;;;;;;;;;5052967;28;20486;-26
2022/04/28 05:04:49;;;;;;;16.58;10.13;;;;;;;;;;5052570;28;20041;-25
2022/04/28 05:07:16;;;;;;;20.45;11.50;;;;;;;;;;5034906;28;20487;-27
2022/04/28 05:09:42;;;;;;;20.23;10.73;;;;;;;;;;5052734;28;20045;-26
2022/04/28 05:12:09;;;;;;;16.13;10.57;;;;;;;;;;5052709;28;20041;-25
2022/04/28 05:14:35;;;;;;;17.40;10.15;;;;;;;;;;5052973;28;20287;-25
2022/04/28 05:17:01;;;;;;;18.35;11.18;;;;;;;;;;5052406;28;20056;-27
2022/04/28 05:19:27;;;;;;;16.63;9.27;;;;;;;;;;5052292;28;20041;-26
2022/04/28 05:21:55;;;;;;;17.45;10.15;;;;;;;;;;5052072;28;20040;-25
2022/04/28 05:24:21;;;;;;;15.32;9.90;;;;;;;;;;5052543;28;20052;-25
2022/04/28 05:26:47;;;;;;;13.20;10.25;;;;;;;;;;5057654;28;20396;-25
2022/04/28 05:29:13;;;;;;;19.33;10.68;;;;;;;;;;5072212;28;20041;-27
2022/04/28 05:31:39;;;;;;;18.92;10.43;;;;;;;;;;5072128;28;20040;-25
2022/04/28 05:34:05;;;;;;;14.25;9.50;;;;;;;;;;5071987;28;20039;-26
2022/04/28 05:36:32;;;;;;;16.65;9.75;;;;;;;;;;5054159;28;20033;-24
2022/04/28 05:38:58;;;;;;;17.77;11.20;;;;;;;;;;5071268;28;20575;-25
2022/04/28 05:41:28;;;;;;;15.10;9.60;;;;;;;;;;5052098;28;20044;-25
2022/04/28 05:46:39;;;;;;;18.70;10.38;;;;;;;;;;5069469;28;20131;-28
2022/04/28 05:49:05;;;;;;;14.05;9.45;;;;;;;;;;5071863;28;20123;-26
2022/04/28 05:51:32;;;;;;;18.35;10.10;;;;;;;;;;5071939;28;20040;-27
2022/04/28 05:53:58;;;;;;;16.65;9.65;;;;;;;;;;5057296;28;20043;-27
2022/04/28 05:56:24;;;;;;;17.35;9.75;;;;;;;;;;5051935;28;20094;-26
2022/04/28 05:58:50;;;;;;;17.88;9.65;;;;;;;;;;5051923;28;20128;-28
2022/04/28 06:01:16;;;;;;;18.45;10.23;;;;;;;;;;5052235;28;20040;-26
2022/04/28 06:03:43;;;;;;;14.07;9.93;;;;;;;;;;5033906;28;20110;-25
2022/04/28 06:06:09;;;;;;;14.85;9.63;;;;;;;;;;5052086;28;20045;-26
2022/04/28 06:08:35;;;;;;;15.60;10.75;;;;;;;;;;5052074;28;20376;-27
2022/04/28 06:11:02;;;;;;;17.10;10.77;;;;;;;;;;5051889;28;20045;-28
2022/04/28 06:13:28;;;;;;;15.18;10.23;;;;;;;;;;5052223;28;20510;-26
2022/04/28 06:15:54;;;;;;;16.65;10.15;;;;;;;;;;5051892;28;20052;-26
2022/04/28 06:18:21;;;;;;;14.57;9.75;;;;;;;;;;5051898;28;20074;-25
2022/04/28 06:20:47;;;;;;;15.10;9.57;;;;;;;;;;5051810;28;20114;-26
2022/04/28 06:23:13;;;;;;;14.93;9.68;;;;;;;;;;5052067;28;20037;-25
2022/04/28 06:25:39;;;;;;;17.88;9.90;;;;;;;;;;5051605;28;20067;-25
2022/04/28 06:28:05;;;;;;;13.43;8.70;;;;;;;;;;5050403;28;20562;-25
2022/04/28 06:30:31;;;;;;;12.93;8.85;;;;;;;;;;5052055;28;20047;-28
2022/04/28 06:32:57;;;;;;;15.45;9.90;;;;;;;;;;5051733;28;20099;-25
2022/04/28 06:35:24;;;;;;;14.23;8.93;;;;;;;;;;5051790;28;20068;-27
2022/04/28 06:37:50;;;;;;;13.73;8.70;;;;;;;;;;5051262;28;20040;-26
2022/04/28 06:40:17;;;;;;;15.60;8.40;;;;;;;;;;5033456;28;20041;-24
2022/04/28 06:42:49;;;;;;;16.77;8.52;;;;;;;;;;5051440;28;20452;-27
2022/04/28 06:45:16;;;;;;;13.05;8.15;;;;;;;;;;5054275;28;20041;-26
2022/04/28 06:47:42;;;;;;;10.95;8.45;;;;;;;;;;5071559;28;20143;-25
2022/04/28 06:50:09;;;;;;;12.13;8.05;;;;;;;;;;5074085;28;20483;-24
2022/04/28 06:52:36;;;;;;;13.32;7.63;;;;;;;;;;5075768;28;20036;-28
2022/04/28 06:55:03;;;;;;;16.02;8.60;;;;;;;;;;5075619;28;20044;-27
2022/04/28 06:57:29;;;;;;;11.82;7.82;;;;;;;;;;5075604;28;20082;-26
2022/04/28 06:59:55;;;;;;;9.48;7.65;;;;;;;;;;5075539;28;20394;-25
2022/04/28 07:02:21;;;;;;;13.00;8.10;;;;;;;;;;5075578;28;20051;-26
2022/04/28 07:04:48;;;;;;;15.48;7.93;;;;;;;;;;5075508;28;20500;-27
2022/04/28 07:07:14;;;;;;;13.77;8.38;;;;;;;;;;5075656;28;20760;-25
2022/04/28 07:09:41;;;;;;;12.65;8.05;;;;;;;;;;5074929;28;20045;-25
2022/04/28 07:12:07;;;;;;;15.52;8.82;;;;;;;;;;5075262;28;20033;-25
2022/04/28 07:14:36;;;;;;;12.02;7.68;;;;;;;;;;5075277;28;20482;-26
2022/04/28 07:17:02;;;;;;;12.23;7.75;;;;;;;;;;5075648;28;20398;-26
2022/04/28 07:19:29;;;;;;;11.13;7.82;;;;;;;;;;5074928;28;20046;-26
2022/04/28 07:21:55;;;;;;;13.05;7.35;;;;;;;;;;5074890;28;20044;-24
2022/04/28 07:24:21;;;;;;;14.50;7.15;;;;;;;;;;5075343;28;20040;-27
2022/04/28 07:26:47;;;;;;;12.13;7.00;;;;;;;;;;5075893;28;20044;-26
2022/04/28 07:29:13;;;;;;;10.13;6.82;;;;;;;;;;5075501;28;20044;-32
2022/04/28 07:31:39;;;;;;;9.15;6.50;;;;;;;;;;5075361;28;20036;-27
2022/04/28 07:34:05;;;;;;;13.25;7.35;;;;;;;;;;5075834;28;20109;-26
2022/04/28 07:36:32;;;;;;;12.57;6.25;;;;;;;;;;5075425;28;20048;-26
2022/04/28 07:38:58;;;;;;;11.70;7.20;;;;;;;;;;5055589;28;20170;-25
2022/04/28 07:41:24;;;;;;;13.32;7.25;;;;;;;;;;5055307;28;20120;-25
2022/04/28 07:43:50;;;;;;;11.30;6.97;;;;;;;;;;5054937;28;20055;-26
2022/04/28 07:46:17;;;;;;;12.93;6.82;;;;;;;;;;5054986;28;20045;-25
2022/04/28 07:48:43;;;;;;;9.25;6.53;;;;;;;;;;5055258;28;20187;-26
2022/04/28 07:51:09;;;;;;;9.20;6.38;;;;;;;;;;5067460;28;20042;-26
2022/04/28 07:53:35;;;;;;;8.95;5.57;;;;;;;;;;5075359;28;20035;-27
2022/04/28 07:56:10;;;;;;;9.80;6.05;;;;;;;;;;5075158;28;20174;-27
2022/04/28 07:58:37;;;;;;;11.95;6.40;;;;;;;;;;5074562;28;20041;-29
2022/04/28 08:01:04;;;;;;;10.90;5.85;;;;;;;;;;5072559;28;20422;-26
2022/04/28 08:03:30;;;;;;;8.63;5.43;;;;;;;;;;5075018;28;20497;-26
2022/04/28 08:05:56;;;;;;;9.77;5.32;;;;;;;;;;5074635;28;20486;-26
2022/04/28 08:08:22;;;;;;;9.05;4.78;;;;;;;;;;5074474;28;20044;-27
2022/04/28 08:10:49;;;;;;;8.38;4.90;;;;;;;;;;5074766;28;20452;-27
2022/04/28 08:13:15;;;;;;;8.43;5.05;;;;;;;;;;5074522;28;20107;-26
2022/04/28 08:15:41;;;;;;;10.05;5.25;;;;;;;;;;5074120;28;20048;-26
2022/04/28 08:18:07;;;;;;;8.60;5.00;;;;;;;;;;5074470;28;20444;-26
2022/04/28 08:20:33;;;;;;;11.32;5.10;;;;;;;;;;5074451;28;20091;-26
2022/04/28 08:22:59;;;;;;;9.05;4.82;;;;;;;;;;5074338;28;20402;-25
2022/04/28 08:25:25;;;;;;;12.88;6.10;;;;;;;;;;5074427;28;20443;-26
2022/04/28 08:27:51;;;;;;;8.15;5.68;;;;;;;;;;5074125;28;20387;-26
2022/04/28 08:30:18;;;;;;;10.45;5.10;;;;;;;;;;5074250;28;20398;-25
2022/04/28 08:32:44;;;;;;;8.02;5.07;;;;;;;;;;5073274;28;20051;-26
2022/04/28 08:35:10;;;;;;;7.40;4.60;;;;;;;;;;5074241;28;20112;-25
2022/04/28 08:37:39;;;;;;;9.23;5.45;;;;;;;;;;5073992;28;20040;-25
2022/04/28 08:40:05;;;;;;;7.15;4.90;;;;;;;;;;5073730;28;20044;-27
2022/04/28 08:42:32;;;;;;;8.00;5.20;;;;;;;;;;5073758;28;20040;-26
2022/04/28 08:45:00;;;;;;;5.68;4.68;;;;;;;;;;5073586;28;20398;-26
2022/04/28 08:47:26;;;;;;;6.53;5.13;;;;;;;;;;5073918;28;20548;-26
2022/04/28 08:49:52;;;;;;;8.30;4.82;;;;;;;;;;5073807;28;20036;-26
2022/04/28 08:52:19;;;;;;;7.13;5.25;;;;;;;;;;5073326;28;20040;-26
2022/04/28 08:54:45;;;;;;;7.90;5.15;;;;;;;;;;5073666;28;20471;-26
2022/04/28 08:57:13;;;;;;;7.38;4.20;;;;;;;;;;5073622;28;20513;-26
2022/04/28 08:59:39;;;;;;;5.28;3.83;;;;;;;;;;5073658;28;20083;-27
2022/04/28 09:02:07;;;;;;;8.65;4.57;;;;;;;;;;5073677;28;20036;-25
2022/04/28 09:04:33;;;;;;;8.48;4.80;;;;;;;;;;5073726;28;20538;-25
2022/04/28 09:07:00;;;;;;;7.75;4.20;;;;;;;;;;5073467;28;20101;-26
2022/04/28 09:09:27;;;;;;;6.65;4.10;;;;;;;;;;5073547;28;20162;-26
2022/04/28 09:11:57;;;;;;;10.85;4.55;;;;;;;;;;5073231;28;20044;-26
2022/04/28 09:14:23;;;;;;;7.93;4.47;;;;;;;;;;5055507;28;20041;-26
2022/04/28 09:16:49;;;;;;;8.60;4.72;;;;;;;;;;5058288;28;20120;-27
2022/04/28 09:19:21;;;;;;;6.70;4.10;;;;;;;;;;5052399;28;20124;-27
2022/04/28 09:21:47;;;;;;;7.05;4.50;;;;;;;;;;5052434;28;20068;-27
2022/04/28 09:24:14;;;;;;;6.88;3.85;;;;;;;;;;5052073;28;20072;-27
2022/04/28 09:26:41;;;;;;;4.95;3.95;;;;;;;;;;5052258;28;20093;-26
2022/04/28 09:29:10;;;;;;;6.22;3.70;;;;;;;;;;5052472;28;20048;-26
2022/04/28 09:31:37;;;;;;;6.95;3.85;;;;;;;;;;5052126;28;20048;-26
2022/04/28 09:34:04;;;;;;;7.68;3.63;;;;;;;;;;5052052;28;20430;-26
2022/04/28 09:36:31;;;;;;;10.07;3.60;;;;;;;;;;5052039;28;20498;-26
2022/04/28 09:38:57;;;;;;;5.57;3.50;;;;;;;;;;5051805;28;20128;-27
2022/04/28 09:44:11;;;;;;;3.85;3.05;;;;;;;;;;5051556;28;20041;-27
2022/04/28 09:46:41;;;;;;;7.43;3.67;;;;;;;;;;5033741;28;20110;-27
2022/04/28 09:49:09;;;;;;;8.13;3.17;;;;;;;;;;5051483;28;20041;-30
2022/04/28 09:51:38;;;;;;;5.28;2.88;;;;;;;;;;5051868;28;20049;-27
2022/04/28 09:54:06;;;;;;;6.57;2.92;;;;;;;;;;5051663;28;20045;-30
2022/04/28 09:56:34;;;;;;;6.55;3.20;;;;;;;;;;5051507;28;20041;-27
2022/04/28 09:59:00;;;;;;;6.72;3.08;;;;;;;;;;5051575;28;20040;-30
2022/04/28 10:01:29;;;;;;;4.15;2.60;;;;;;;;;;5051509;28;20052;-27
2022/04/28 10:03:55;;;;;;;4.45;2.80;;;;;;;;;;5053339;28;20514;-28
2022/04/28 10:06:21;;;;;;;6.03;2.72;;;;;;;;;;5071980;28;20658;-29
2022/04/28 10:08:48;;;;;;;5.03;2.78;;;;;;;;;;5071388;28;20048;-28
2022/04/28 10:11:19;;;;;;;4.43;2.55;;;;;;;;;;5071821;28;20036;-28
2022/04/28 10:13:46;;;;;;;4.55;2.60;;;;;;;;;;5053327;28;20041;-29
2022/04/28 10:16:13;;;;;;;5.82;2.42;;;;;;;;;;5071695;28;20032;-28
2022/04/28 10:18:44;;;;;;;5.30;2.63;;;;;;;;;;5071314;28;20055;-30
2022/04/28 10:21:12;;;;;;;4.18;2.47;;;;;;;;;;5071870;28;20067;-27
2022/04/28 10:32:43;;;;;;;6.43;2.80;;;;;;;;;;5066125;28;20394;-26
2022/04/28 10:35:09;;;;;;;2.63;2.22;;;;;;;;;;5057785;28;20052;-28
2022/04/28 10:37:36;;;;;;;6.88;2.40;;;;;;;;;;5070929;28;20040;-27
2022/04/28 10:40:04;;;;;;;5.25;2.47;;;;;;;;;;5071066;28;20455;-26
2022/04/28 10:42:30;;;;;;;5.97;2.67;;;;;;;;;;5070887;28;20044;-26
2022/04/28 10:44:57;;;;;;;6.72;2.88;;;;;;;;;;5071034;28;20041;-26
2022/04/28 10:47:35;;;;;;;4.68;3.00;;;;;;;;;;5071092;28;20128;-27
2022/04/28 10:50:02;;;;;;;8.00;2.55;;;;;;;;;;5071289;28;20490;-27
2022/04/28 10:52:28;;;;;;;8.15;3.00;;;;;;;;;;5071213;28;20470;-27
2022/04/28 10:54:54;;;;;;;6.82;2.90;;;;;;;;;;5071241;28;20502;-27
2022/04/28 10:57:29;;;;;;;5.32;2.72;;;;;;;;;;5070847;28;20040;-27
2022/04/28 10:59:55;;;;;;;6.22;3.00;;;;;;;;;;5071066;28;20452;-27
2022/04/28 11:02:21;;;;;;;12.85;3.22;;;;;;;;;;5071112;28;20051;-26
2022/04/28 11:04:52;;;;;;;5.40;3.00;;;;;;;;;;5052744;28;20053;-27
2022/04/28 11:07:24;;;;;;;6.25;2.70;;;;;;;;;;5071107;28;20055;-26
2022/04/28 11:09:55;;;;;;;7.57;3.65;;;;;;;;;;5070577;28;20044;-28
2022/04/28 11:12:22;;;;;;;5.97;2.60;;;;;;;;;;5071230;28;20498;-26
2022/04/28 11:14:52;;;;;;;5.45;2.90;;;;;;;;;;5072018;28;20405;-27
2022/04/28 11:17:21;;;;;;;7.07;3.22;;;;;;;;;;5071713;28;20047;-26
2022/04/28 11:19:47;;;;;;;7.65;3.70;;;;;;;;;;5070875;28;20402;-28
2022/04/28 11:22:13;;;;;;;6.35;3.30;;;;;;;;;;5071050;28;20045;-26
2022/04/28 11:24:43;;;;;;;8.77;3.58;;;;;;;;;;5070944;28;20040;-27
2022/04/28 11:27:15;;;;;;;5.65;3.30;;;;;;;;;;5070715;28;20398;-26
2022/04/28 11:29:42;;;;;;;7.63;3.67;;;;;;;;;;5070588;28;20049;-26
2022/04/28 11:32:11;;;;;;;4.93;3.38;;;;;;;;;;5070853;28;20040;-26
2022/04/28 11:34:38;;;;;;;5.28;3.20;;;;;;;;;;5070737;28;20109;-26
2022/04/28 11:37:13;;;;;;;5.32;3.30;;;;;;;;;;5072386;28;20036;-26
2022/04/28 11:39:39;;;;;;;7.75;3.70;;;;;;;;;;5074574;28;20100;-26
2022/04/28 11:42:09;;;;;;;6.13;3.30;;;;;;;;;;5074522;28;20432;-27
2022/04/28 11:44:36;;;;;;;6.45;3.25;;;;;;;;;;5074838;28;20173;-27
2022/04/28 11:47:02;;;;;;;5.50;3.35;;;;;;;;;;5074828;28;20524;-27
2022/04/28 11:49:33;;;;;;;10.73;3.60;;;;;;;;;;5074763;28;20074;-27
2022/04/28 11:52:00;;;;;;;6.65;3.60;;;;;;;;;;5074796;28;20063;-26
2022/04/28 11:54:27;;;;;;;6.40;3.85;;;;;;;;;;5074025;28;20498;-26
2022/04/28 11:57:09;;;;;;;8.43;3.67;;;;;;;;;;5074325;28;20028;-26
2022/04/28 11:59:37;;;;;;;6.35;3.05;;;;;;;;;;5073957;28;20478;-26
2022/04/28 12:02:03;;;;;;;7.43;3.47;;;;;;;;;;5073950;28;20044;-26
2022/04/28 12:04:29;;;;;;;7.75;4.28;;;;;;;;;;5073989;28;20508;-26
2022/04/28 12:06:55;;;;;;;8.10;3.78;;;;;;;;;;5056073;28;20040;-26
2022/04/28 12:14:55;;;;;;;5.30;3.50;;;;;;;;;;5073622;28;20040;-28
2022/04/28 12:20:11;;;;;;;6.57;4.00;;;;;;;;;;5073623;28;20136;-28
2022/04/28 12:22:39;;;;;;;5.68;3.63;;;;;;;;;;5072820;28;20051;-27
2022/04/28 12:25:08;;;;;;;6.63;3.53;;;;;;;;;;5053457;28;20036;-27
2022/04/28 12:27:38;;;;;;;6.80;3.80;;;;;;;;;;5053253;28;20072;-26
2022/04/28 12:30:07;;;;;;;4.93;3.15;;;;;;;;;;5052811;28;20041;-26
2022/04/28 12:32:41;;;;;;;7.40;3.70;;;;;;;;;;5053010;28;20040;-27
2022/04/28 12:35:07;;;;;;;6.35;3.50;;;;;;;;;;5053050;28;20036;-27
2022/04/28 12:37:38;;;;;;;6.53;3.70;;;;;;;;;;5052821;28;20538;-28
2022/04/28 12:40:05;;;;;;;5.60;3.67;;;;;;;;;;5053299;28;20040;-27
2022/04/28 12:42:47;;;;;;;9.13;3.72;;;;;;;;;;5052778;28;20090;-28
2022/04/28 12:45:13;;;;;;;6.45;3.80;;;;;;;;;;5052652;28;20094;-26
2022/04/28 12:47:42;;;;;;;8.25;3.92;;;;;;;;;;5052401;28;20044;-26
2022/04/28 12:50:21;;;;;;;6.60;4.22;;;;;;;;;;5052870;28;20487;-26
2022/04/28 12:52:47;;;;;;;7.20;3.50;;;;;;;;;;5061460;28;20103;-28
2022/04/28 12:55:14;;;;;;;7.65;3.63;;;;;;;;;;5072993;28;20389;-27
2022/04/28 12:57:41;;;;;;;8.73;4.05;;;;;;;;;;5072860;28;20048;-27
2022/04/28 13:00:08;;;;;;;8.57;3.95;;;;;;;;;;5072895;28;20039;-27
2022/04/28 13:02:34;;;;;;;6.57;3.17;;;;;;;;;;5073591;28;20040;-28
2022/04/28 13:05:13;;;;;;;6.18;3.47;;;;;;;;;;5072997;28;20060;-27
2022/04/28 13:07:40;;;;;;;5.95;3.58;;;;;;;;;;5072375;28;20044;-28
2022/04/28 13:10:07;;;;;;;6.65;3.45;;;;;;;;;;5072561;28;20053;-27
2022/04/28 13:12:33;;;;;;;7.95;3.55;;;;;;;;;;5072271;28;20041;-27
2022/04/28 13:15:01;;;;;;;9.57;4.07;;;;;;;;;;5072614;28;20398;-27
2022/04/28 13:17:28;;;;;;;10.40;3.80;;;;;;;;;;5072261;28;20473;-26
2022/04/28 13:19:54;;;;;;;7.22;3.30;;;;;;;;;;5072434;28;20105;-27
2022/04/28 13:22:20;;;;;;;8.18;3.20;;;;;;;;;;5072253;28;20045;-29
2022/04/28 13:24:46;;;;;;;7.43;3.67;;;;;;;;;;5072383;28;20565;-27
2022/04/28 13:27:12;;;;;;;7.55;3.80;;;;;;;;;;5072308;28;20098;-27
2022/04/28 13:29:39;;;;;;;6.70;3.60;;;;;;;;;;5071780;28;20052;-26
2022/04/28 13:32:07;;;;;;;7.90;3.63;;;;;;;;;;5071889;28;20048;-27
2022/04/28 13:34:33;;;;;;;8.77;3.70;;;;;;;;;;5071809;28;20096;-27
2022/04/28 13:36:59;;;;;;;8.23;3.60;;;;;;;;;;5072013;28;20171;-26
2022/04/28 13:39:25;;;;;;;5.82;3.33;;;;;;;;;;5072059;28;20044;-27
2022/04/28 13:41:53;;;;;;;5.82;3.17;;;;;;;;;;5071735;28;20131;-27
2022/04/28 13:44:19;;;;;;;7.07;3.92;;;;;;;;;;5071682;28;20044;-28
2022/04/28 13:46:46;;;;;;;9.05;3.97;;;;;;;;;;5071892;28;20537;-26
2022/04/28 13:49:12;;;;;;;7.40;3.63;;;;;;;;;;5071511;28;20078;-27
2022/04/28 13:51:39;;;;;;;8.65;3.83;;;;;;;;;;5072010;28;20504;-28
2022/04/28 13:54:05;;;;;;;4.90;3.47;;;;;;;;;;5071856;28;20055;-27
2022/04/28 13:56:31;;;;;;;7.05;3.38;;;;;;;;;;5071737;28;20111;-26
2022/04/28 13:58:57;;;;;;;8.00;3.50;;;;;;;;;;5053335;28;20383;-26
2022/04/28 14:01:23;;;;;;;10.02;3.42;;;;;;;;;;5071789;28;20045;-27
2022/04/28 14:03:50;;;;;;;8.35;3.75;;;;;;;;;;5071618;28;20430;-27
2022/04/28 14:06:16;;;;;;;8.15;3.70;;;;;;;;;;5071085;28;20136;-27
2022/04/28 14:08:42;;;;;;;8.07;3.47;;;;;;;;;;5070988;28;20048;-26
2022/04/28 14:11:09;;;;;;;9.75;3.70;;;;;;;;;;5057910;28;20040;-27
2022/04/28 14:13:35;;;;;;;7.18;3.60;;;;;;;;;;5051881;28;20079;-27
2022/04/28 14:16:02;;;;;;;5.70;3.65;;;;;;;;;;5051587;28;20563;-27
2022/04/28 14:18:29;;;;;;;8.43;3.65;;;;;;;;;;5051535;28;20036;-28
2022/04/28 14:20:56;;;;;;;8.25;3.25;;;;;;;;;;5051137;28;20052;-27
2022/04/28 14:23:26;;;;;;;5.75;3.10;;;;;;;;;;5051183;28;20098;-26
2022/04/28 14:25:52;;;;;;;8.82;3.72;;;;;;;;;;5051454;28;20099;-27
2022/04/28 14:28:19;;;;;;;6.57;3.22;;;;;;;;;;5051361;28;20033;-26
2022/04/28 14:30:47;;;;;;;6.15;3.40;;;;;;;;;;5051408;28;20068;-27
2022/04/28 14:33:13;;;;;;;7.13;2.72;;;;;;;;;;5051072;28;20037;-27
2022/04/28 14:35:39;;;;;;;6.97;2.90;;;;;;;;;;5050942;28;20039;-26
2022/04/28 14:38:05;;;;;;;5.15;2.95;;;;;;;;;;5049636;28;20160;-27
2022/04/28 14:40:31;;;;;;;6.97;3.53;;;;;;;;;;5050902;28;20098;-27
2022/04/28 14:42:57;;;;;;;6.30;3.58;;;;;;;;;;5051331;28;20103;-27
2022/04/28 14:45:23;;;;;;;10.52;3.50;;;;;;;;;;5051156;28;20041;-27
2022/04/28 14:47:49;;;;;;;8.60;3.92;;;;;;;;;;5051157;28;20110;-27
2022/04/28 14:53:00;;;;;;;8.05;4.18;;;;;;;;;;5051178;28;20037;-27
2022/04/28 14:55:26;;;;;;;6.80;3.50;;;;;;;;;;5051199;28;20064;-27
2022/04/28 14:57:52;;;;;;;7.32;2.90;;;;;;;;;;5051725;28;20538;-28
2022/04/28 15:00:22;;;;;;;4.72;3.65;;;;;;;;;;5051373;28;20041;-29
2022/04/28 15:02:49;;;;;;;8.38;3.00;;;;;;;;;;5033958;28;20040;-28
2022/04/28 15:05:16;;;;;;;6.50;3.28;;;;;;;;;;5052190;28;20045;-29
2022/04/28 15:07:42;;;;;;;6.75;3.33;;;;;;;;;;5053390;28;20167;-28
2022/04/28 15:10:08;;;;;;;8.40;3.20;;;;;;;;;;5072576;28;20044;-28
2022/04/28 15:12:35;;;;;;;7.28;3.40;;;;;;;;;;5068869;28;20068;-27
2022/04/28 15:15:03;;;;;;;5.72;3.17;;;;;;;;;;5041780;28;20101;-28
2022/04/28 15:17:30;;;;;;;5.50;3.00;;;;;;;;;;5075749;28;20048;-28